SEATTLE-TACOMA INTL

KSEA (SEA)
Seattle, Washington
Towered

Vatsim Metar:
KSEA 131953Z 35015G23KT 10SM CLR 17/M04 A3030 RMK AO2 WSHFT 1900 SLP268 T01671044